Time;durP1;ratioP1;P1;durP2;ratioP2;P2;SDS_P1;SDS_P2;PMS_P1;PMS_P2;Temp;Humidity;BMP_temperature;BMP_pressure;BME280_temperature;BME280_humidity;BME280_pressure;Samples;Min_cycle;Max_cycle;Signal;HPM_P1;HPM_P2
2023/03/18 00:01:13;;;;;;;10.50;4.90;;;11.20;99.90;;;;;;4998394;28;20252;-81
2023/03/18 00:03:39;;;;;;;7.63;5.13;;;11.20;99.90;;;;;;4981230;28;20203;-81
2023/03/18 00:06:14;;;;;;;9.77;4.60;;;11.20;99.90;;;;;;4998287;28;20637;-81
2023/03/18 00:08:41;;;;;;;8.63;4.80;;;11.20;99.90;;;;;;4998406;28;20184;-81
2023/03/18 00:11:09;;;;;;;7.80;4.60;;;11.20;99.90;;;;;;4997980;28;20196;-81
2023/03/18 00:13:36;;;;;;;7.35;4.55;;;11.20;99.90;;;;;;4997061;28;20180;-81
2023/03/18 00:16:03;;;;;;;13.30;5.00;;;11.20;99.90;;;;;;4997514;28;20219;-81
2023/03/18 00:18:30;;;;;;;11.50;4.50;;;11.30;99.90;;;;;;4980209;28;20247;-81
2023/03/18 00:20:57;;;;;;;7.93;4.80;;;11.30;99.90;;;;;;4980412;28;20601;-81
2023/03/18 00:23:25;;;;;;;10.07;4.97;;;11.30;99.90;;;;;;4997296;28;20602;-81
2023/03/18 00:25:53;;;;;;;10.20;4.60;;;11.30;99.90;;;;;;4997888;28;20168;-81
2023/03/18 00:28:19;;;;;;;10.20;4.47;;;11.30;99.90;;;;;;4979671;28;20201;-81
2023/03/18 00:30:45;;;;;;;8.90;4.67;;;11.30;99.90;;;;;;4997781;28;20213;-81
2023/03/18 00:33:11;;;;;;;10.63;4.53;;;11.20;99.90;;;;;;4997622;28;20206;-81
2023/03/18 00:35:38;;;;;;;7.33;4.30;;;11.20;99.90;;;;;;4979980;28;20645;-81
2023/03/18 00:38:06;;;;;;;7.40;5.50;;;11.20;99.90;;;;;;4997518;28;20680;-81
2023/03/18 00:40:51;;;;;;;8.43;4.53;;;11.30;99.90;;;;;;4979657;28;20640;-81
2023/03/18 00:43:21;;;;;;;8.23;4.55;;;11.30;99.90;;;;;;4980967;28;20192;-81
2023/03/18 00:45:49;;;;;;;7.40;4.80;;;11.30;99.90;;;;;;4982135;28;20176;-81
2023/03/18 00:48:16;;;;;;;10.48;4.68;;;11.30;99.90;;;;;;4998219;28;20228;-81
2023/03/18 00:50:43;;;;;;;9.18;4.93;;;11.40;99.90;;;;;;4997562;28;20184;-81
2023/03/18 00:53:10;;;;;;;7.90;4.90;;;11.40;99.90;;;;;;4997312;28;20207;-81
2023/03/18 00:55:36;;;;;;;7.27;4.47;;;11.40;99.90;;;;;;4979601;28;20188;-81
2023/03/18 00:58:02;;;;;;;11.05;4.70;;;11.50;99.90;;;;;;4980834;28;20216;-81
2023/03/18 01:00:28;;;;;;;7.82;4.80;;;11.60;99.90;;;;;;4997230;28;20630;-81
2023/03/18 01:02:55;;;;;;;7.63;5.18;;;11.50;99.90;;;;;;4997453;28;20259;-81
2023/03/18 01:05:21;;;;;;;8.95;4.82;;;11.50;99.90;;;;;;4996937;28;20173;-81
2023/03/18 01:07:48;;;;;;;7.13;4.90;;;11.50;99.90;;;;;;4997143;28;20292;-81
2023/03/18 01:10:14;;;;;;;11.55;4.30;;;11.50;99.90;;;;;;4996753;28;20191;-81
2023/03/18 01:12:41;;;;;;;9.20;4.90;;;11.50;99.90;;;;;;4995945;28;20271;-81
2023/03/18 01:15:13;;;;;;;6.70;4.50;;;11.50;99.90;;;;;;4996433;28;20211;-81
2023/03/18 01:17:39;;;;;;;11.38;4.90;;;11.50;99.90;;;;;;4979464;28;20216;-81
2023/03/18 01:20:05;;;;;;;11.80;4.43;;;11.50;99.90;;;;;;4996779;28;20186;-81
2023/03/18 01:22:31;;;;;;;11.18;4.95;;;11.50;99.90;;;;;;4979455;28;20563;-81
2023/03/18 01:24:57;;;;;;;8.85;4.82;;;11.50;99.90;;;;;;4998319;28;20164;-80
2023/03/18 01:27:23;;;;;;;8.82;4.90;;;11.50;99.90;;;;;;4983532;28;20220;-80
2023/03/18 01:29:49;;;;;;;8.25;4.95;;;11.40;99.90;;;;;;4982528;28;20189;-80
2023/03/18 01:32:15;;;;;;;8.07;4.85;;;11.40;99.90;;;;;;4981807;28;20188;-80
2023/03/18 01:34:41;;;;;;;13.15;5.20;;;11.30;99.90;;;;;;4981984;28;20184;-80
2023/03/18 01:37:07;;;;;;;9.02;5.30;;;11.30;99.90;;;;;;4982173;28;20216;-80
2023/03/18 01:39:33;;;;;;;7.70;4.55;;;11.30;99.90;;;;;;5000086;28;20165;-80
2023/03/18 01:42:00;;;;;;;8.60;4.60;;;11.30;99.90;;;;;;5000312;28;20173;-80
2023/03/18 01:44:26;;;;;;;9.38;4.68;;;11.30;99.90;;;;;;5000248;28;20172;-80
2023/03/18 01:46:53;;;;;;;11.30;4.82;;;11.30;99.90;;;;;;4983362;28;20208;-80
2023/03/18 01:49:38;;;;;;;7.22;4.78;;;11.30;99.90;;;;;;4982731;28;20185;-80
2023/03/18 01:52:10;;;;;;;7.93;4.80;;;11.30;99.90;;;;;;4982656;28;20195;-80
2023/03/18 01:54:42;;;;;;;7.95;4.93;;;11.30;99.90;;;;;;5000376;28;20207;-80
2023/03/18 01:57:08;;;;;;;12.05;4.97;;;11.30;99.90;;;;;;4982274;28;20212;-80
2023/03/18 01:59:38;;;;;;;10.13;5.18;;;11.30;99.90;;;;;;4982281;28;20245;-80
2023/03/18 02:02:08;;;;;;;9.68;4.78;;;11.30;99.90;;;;;;4983076;28;20248;-80
2023/03/18 02:04:43;;;;;;;11.83;5.40;;;11.30;99.90;;;;;;4982974;28;20592;-80
2023/03/18 02:07:22;;;;;;;9.95;5.35;;;11.30;99.90;;;;;;4982650;28;20678;-80
2023/03/18 02:09:49;;;;;;;5.75;4.80;;;11.30;99.90;;;;;;4982399;28;20247;-80
2023/03/18 02:12:28;;;;;;;9.40;4.97;;;11.30;99.90;;;;;;5000323;28;20180;-80
2023/03/18 02:14:55;;;;;;;6.05;4.72;;;11.30;99.90;;;;;;4982424;28;20263;-80
2023/03/18 02:17:32;;;;;;;9.43;5.20;;;11.30;99.90;;;;;;4982092;28;20618;-80
2023/03/18 02:20:07;;;;;;;13.73;5.20;;;11.30;99.90;;;;;;4982719;28;20177;-80
2023/03/18 02:22:40;;;;;;;8.93;4.85;;;11.30;99.90;;;;;;4982324;28;20590;-80
2023/03/18 02:25:24;;;;;;;7.00;4.85;;;11.30;99.90;;;;;;4982116;28;20195;-80
2023/03/18 02:27:58;;;;;;;6.45;4.88;;;11.30;99.90;;;;;;4999170;28;20200;-80
2023/03/18 02:30:32;;;;;;;6.25;4.65;;;11.30;99.90;;;;;;5000404;28;20239;-80
2023/03/18 02:32:59;;;;;;;9.55;5.57;;;11.30;99.90;;;;;;5005488;28;20167;-80
2023/03/18 02:35:26;;;;;;;7.68;4.78;;;11.20;99.90;;;;;;4982354;28;20208;-80
2023/03/18 02:37:52;;;;;;;10.82;5.45;;;11.20;99.90;;;;;;4982232;28;20263;-80
2023/03/18 02:40:23;;;;;;;9.13;5.10;;;11.20;99.90;;;;;;4982521;28;20172;-80
2023/03/18 02:42:50;;;;;;;6.93;4.80;;;11.20;99.90;;;;;;4982323;28;20172;-80
2023/03/18 02:45:56;;;;;;;7.10;5.07;;;11.20;99.90;;;;;;4999557;28;20169;-80
2023/03/18 02:48:25;;;;;;;10.25;5.18;;;11.10;99.90;;;;;;4981594;28;20200;-80
2023/03/18 02:50:52;;;;;;;8.68;5.10;;;11.20;99.90;;;;;;4999244;28;20172;-80
2023/03/18 02:53:18;;;;;;;8.23;5.25;;;11.20;99.90;;;;;;4981409;28;20199;-80
2023/03/18 02:55:44;;;;;;;5.65;4.55;;;11.20;99.90;;;;;;4982040;28;20191;-80
2023/03/18 02:58:10;;;;;;;6.60;4.75;;;11.20;99.90;;;;;;4999085;28;20200;-80
2023/03/18 03:00:36;;;;;;;5.70;4.63;;;11.30;99.90;;;;;;4999840;28;20168;-80
2023/03/18 03:03:02;;;;;;;7.35;5.55;;;11.20;99.90;;;;;;4982224;28;20271;-80
2023/03/18 03:05:28;;;;;;;8.90;4.95;;;11.10;99.90;;;;;;4999791;28;20638;-80
2023/03/18 03:07:54;;;;;;;8.30;5.25;;;11.10;99.90;;;;;;4982677;28;20200;-81
2023/03/18 03:10:20;;;;;;;7.18;4.80;;;11.10;99.90;;;;;;4999709;28;20263;-81
2023/03/18 03:12:46;;;;;;;8.02;5.05;;;11.00;99.90;;;;;;4999132;28;20188;-80
2023/03/18 03:15:13;;;;;;;9.90;5.47;;;10.90;99.90;;;;;;4980789;28;20234;-80
2023/03/18 03:17:40;;;;;;;6.15;5.20;;;10.90;99.90;;;;;;4980541;28;20212;-80
2023/03/18 03:20:07;;;;;;;7.30;4.97;;;10.80;99.90;;;;;;4997890;28;20165;-80
2023/03/18 03:22:33;;;;;;;6.75;4.93;;;10.80;99.90;;;;;;4980018;28;20180;-80
2023/03/18 03:25:00;;;;;;;8.63;5.03;;;10.80;99.90;;;;;;4997809;28;20172;-80
2023/03/18 03:27:28;;;;;;;10.98;5.70;;;10.70;99.90;;;;;;4997707;28;20192;-80
2023/03/18 03:29:54;;;;;;;10.50;5.23;;;10.60;99.90;;;;;;4998230;28;20176;-80
2023/03/18 03:32:21;;;;;;;6.97;4.78;;;10.50;99.90;;;;;;4980578;28;20191;-80
2023/03/18 03:34:48;;;;;;;7.83;5.23;;;10.50;99.90;;;;;;4997757;28;20177;-80
2023/03/18 03:37:14;;;;;;;8.02;5.53;;;10.40;99.90;;;;;;4997603;28;20207;-80
2023/03/18 03:39:39;;;;;;;10.75;5.70;;;10.40;99.90;;;;;;4998316;28;20223;-80
2023/03/18 03:42:06;;;;;;;12.53;5.90;;;10.30;99.90;;;;;;4980569;28;20180;-80
2023/03/18 03:44:31;;;;;;;9.97;6.00;;;10.30;99.90;;;;;;4981385;28;20272;-80
2023/03/18 03:46:57;;;;;;;10.93;6.47;;;10.30;99.90;;;;;;4999093;28;20220;-80
2023/03/18 03:49:23;;;;;;;8.77;5.57;;;10.30;99.90;;;;;;4981652;28;20203;-80
2023/03/18 03:51:49;;;;;;;7.07;5.10;;;10.20;99.90;;;;;;4981607;28;20235;-80
2023/03/18 03:54:15;;;;;;;9.43;5.57;;;10.10;99.90;;;;;;4981829;28;20248;-80
2023/03/18 03:56:42;;;;;;;7.55;5.60;;;10.10;99.90;;;;;;4981507;28;20671;-80
2023/03/18 03:59:09;;;;;;;9.30;5.40;;;10.10;99.90;;;;;;4999268;28;20176;-80
2023/03/18 04:01:35;;;;;;;9.20;5.73;;;10.10;99.90;;;;;;4981391;28;20181;-80
2023/03/18 04:04:01;;;;;;;8.70;5.93;;;10.20;99.90;;;;;;4999030;28;20243;-80
2023/03/18 04:06:28;;;;;;;9.23;6.37;;;10.20;99.90;;;;;;4999393;28;20184;-80
2023/03/18 04:08:54;;;;;;;7.43;6.50;;;10.30;99.90;;;;;;4998507;28;20176;-80
2023/03/18 04:11:20;;;;;;;8.60;5.80;;;10.20;99.90;;;;;;4981823;28;20184;-82
2023/03/18 04:13:47;;;;;;;10.88;6.13;;;10.20;99.90;;;;;;4982652;28;20632;-83
2023/03/18 04:16:13;;;;;;;9.30;6.53;;;10.20;99.90;;;;;;5000377;28;20183;-83
2023/03/18 04:18:39;;;;;;;9.10;6.30;;;10.10;99.90;;;;;;5003072;28;20684;-84
2023/03/18 04:21:06;;;;;;;9.02;6.63;;;10.10;99.90;;;;;;4985638;28;20271;-83
2023/03/18 04:23:33;;;;;;;13.87;6.87;;;10.10;99.90;;;;;;4984048;28;20206;-84
2023/03/18 04:25:59;;;;;;;14.15;6.38;;;10.10;99.90;;;;;;5000908;28;20175;-83
2023/03/18 04:28:25;;;;;;;11.90;6.53;;;10.10;99.90;;;;;;4983440;28;20239;-83
2023/03/18 04:30:51;;;;;;;8.95;6.68;;;10.10;99.90;;;;;;5001179;28;20180;-83
2023/03/18 04:33:18;;;;;;;8.53;6.60;;;10.10;99.90;;;;;;5000522;28;20177;-84
2023/03/18 04:35:44;;;;;;;11.77;6.30;;;10.00;99.90;;;;;;5000748;28;20172;-83
2023/03/18 04:38:10;;;;;;;10.17;7.17;;;10.00;99.90;;;;;;4982816;28;20219;-83
2023/03/18 04:40:36;;;;;;;9.25;6.80;;;10.00;99.90;;;;;;5000801;28;20636;-83
2023/03/18 04:43:02;;;;;;;12.48;7.00;;;9.90;99.90;;;;;;4981257;28;20176;-83
2023/03/18 04:45:29;;;;;;;9.77;7.22;;;9.90;99.90;;;;;;4996649;28;20223;-83
2023/03/18 04:47:55;;;;;;;11.60;7.20;;;9.90;99.90;;;;;;4997412;28;20204;-83
2023/03/18 04:50:21;;;;;;;11.57;7.40;;;9.90;99.90;;;;;;4997567;28;20720;-83
2023/03/18 04:52:47;;;;;;;11.00;7.67;;;9.90;99.90;;;;;;4998017;28;20183;-83
2023/03/18 04:55:15;;;;;;;11.43;6.70;;;9.90;99.90;;;;;;4981439;28;20181;-83
2023/03/18 04:57:41;;;;;;;8.40;6.50;;;9.90;99.90;;;;;;4999217;28;20196;-83
2023/03/18 05:00:10;;;;;;;12.07;7.07;;;9.90;99.90;;;;;;4998919;28;20226;-83
2023/03/18 05:02:37;;;;;;;13.03;8.00;;;9.90;99.90;;;;;;4981949;28;20645;-83
2023/03/18 05:05:03;;;;;;;10.83;7.60;;;9.80;99.90;;;;;;4999377;28;20177;-83
2023/03/18 05:07:29;;;;;;;10.97;7.27;;;9.80;99.90;;;;;;4981728;28;20204;-83
2023/03/18 05:09:54;;;;;;;12.20;7.77;;;9.70;99.90;;;;;;4999566;28;20176;-83
2023/03/18 05:12:20;;;;;;;14.50;8.83;;;9.70;99.90;;;;;;4999604;28;20184;-83
2023/03/18 05:14:46;;;;;;;13.10;9.00;;;9.70;99.90;;;;;;4982463;28;20203;-83
2023/03/18 05:17:16;;;;;;;10.73;7.87;;;9.70;99.90;;;;;;5000002;28;20211;-84
2023/03/18 05:19:44;;;;;;;13.20;8.60;;;9.70;99.90;;;;;;4999395;28;20203;-83
2023/03/18 05:22:10;;;;;;;12.23;7.90;;;9.70;99.90;;;;;;4982284;28;20188;-84
2023/03/18 05:24:37;;;;;;;13.77;8.47;;;9.70;99.90;;;;;;4982157;28;20635;-84
2023/03/18 05:27:03;;;;;;;13.07;8.33;;;9.70;99.90;;;;;;4999333;28;20204;-81
2023/03/18 05:29:29;;;;;;;13.00;8.63;;;9.70;99.90;;;;;;4980501;28;20212;-81
2023/03/18 05:31:54;;;;;;;13.90;8.50;;;9.70;99.90;;;;;;4998053;28;20181;-81
2023/03/18 05:34:20;;;;;;;12.87;8.53;;;9.90;99.90;;;;;;4997604;28;20180;-80
2023/03/18 05:36:47;;;;;;;11.83;8.43;;;9.90;99.90;;;;;;4997571;28;20205;-80
2023/03/18 05:39:13;;;;;;;12.37;8.90;;;9.90;99.90;;;;;;4997840;28;20223;-80
2023/03/18 05:41:38;;;;;;;14.33;8.70;;;9.90;99.90;;;;;;4997969;28;20172;-80
2023/03/18 05:44:04;;;;;;;16.37;8.80;;;10.00;99.90;;;;;;4980533;28;20219;-80
2023/03/18 05:46:30;;;;;;;11.13;8.20;;;10.00;99.90;;;;;;4997622;28;20201;-80
2023/03/18 05:48:56;;;;;;;13.40;8.83;;;10.00;99.90;;;;;;4980487;28;20196;-80
2023/03/18 05:51:22;;;;;;;11.07;7.90;;;10.00;99.90;;;;;;4980361;28;20184;-80
2023/03/18 05:53:48;;;;;;;16.07;8.37;;;10.00;99.90;;;;;;4980547;28;20191;-80
2023/03/18 05:56:14;;;;;;;10.27;7.87;;;10.00;99.90;;;;;;4997476;28;20247;-80
2023/03/18 05:58:40;;;;;;;13.63;7.83;;;10.00;99.90;;;;;;4997518;28;20200;-80
2023/03/18 06:01:06;;;;;;;13.23;8.70;;;10.00;99.90;;;;;;4997484;28;20176;-80
2023/03/18 06:03:33;;;;;;;12.60;8.27;;;10.00;99.90;;;;;;4996908;28;20530;-79
2023/03/18 06:06:00;;;;;;;11.77;8.97;;;10.00;99.90;;;;;;4997364;28;20246;-79
2023/03/18 06:08:26;;;;;;;12.13;8.20;;;10.10;99.90;;;;;;4979759;28;20204;-80
2023/03/18 06:10:53;;;;;;;12.47;8.80;;;10.10;99.90;;;;;;4997924;28;20180;-80
2023/03/18 06:13:19;;;;;;;15.27;8.43;;;10.20;99.90;;;;;;5000831;28;20212;-80
2023/03/18 06:15:45;;;;;;;12.43;8.53;;;10.20;99.90;;;;;;5000393;28;20580;-80
2023/03/18 06:18:12;;;;;;;13.63;8.07;;;10.20;99.90;;;;;;4998621;28;20208;-80
2023/03/18 06:20:38;;;;;;;10.90;8.10;;;10.20;99.90;;;;;;4998815;28;20621;-80
2023/03/18 06:23:04;;;;;;;11.53;8.07;;;10.30;99.90;;;;;;4998578;28;20184;-80
2023/03/18 06:25:30;;;;;;;11.20;7.63;;;10.30;99.90;;;;;;4980749;28;20676;-80
2023/03/18 06:27:56;;;;;;;11.70;8.40;;;10.30;99.90;;;;;;4998511;28;20219;-80
2023/03/18 06:30:22;;;;;;;11.90;8.03;;;10.40;99.90;;;;;;4981119;28;20645;-80
2023/03/18 06:32:48;;;;;;;10.13;8.03;;;10.40;99.90;;;;;;4999012;28;20184;-80
2023/03/18 06:35:14;;;;;;;14.53;7.87;;;10.40;99.90;;;;;;4999506;28;20192;-80
2023/03/18 06:37:40;;;;;;;13.55;7.70;;;10.40;99.90;;;;;;4999985;28;20208;-80
2023/03/18 06:40:07;;;;;;;10.52;7.72;;;10.40;99.90;;;;;;4997813;28;20227;-80
2023/03/18 06:42:33;;;;;;;11.33;7.43;;;10.40;99.90;;;;;;4997441;28;20177;-80
2023/03/18 06:44:59;;;;;;;13.20;7.90;;;10.40;99.90;;;;;;4998257;28;20656;-80
2023/03/18 06:47:25;;;;;;;9.73;7.18;;;10.50;99.90;;;;;;4980624;28;20271;-80
2023/03/18 06:49:50;;;;;;;10.80;6.90;;;10.50;99.90;;;;;;4980647;28;20184;-80
2023/03/18 06:52:17;;;;;;;10.05;7.13;;;10.50;99.90;;;;;;4980054;28;20530;-80
2023/03/18 06:54:44;;;;;;;8.20;6.40;;;10.60;99.90;;;;;;4997963;28;20168;-80
2023/03/18 06:57:10;;;;;;;8.97;6.90;;;10.60;99.90;;;;;;4997649;28;20673;-80
2023/03/18 06:59:37;;;;;;;13.10;6.67;;;10.60;99.90;;;;;;4997750;28;20646;-80
2023/03/18 07:02:04;;;;;;;8.63;6.63;;;10.70;99.90;;;;;;4980130;28;20311;-80
2023/03/18 07:04:30;;;;;;;8.57;6.80;;;10.70;99.90;;;;;;4998420;28;20175;-80
2023/03/18 07:06:56;;;;;;;16.87;10.53;;;10.70;99.90;;;;;;4980603;28;20215;-80
2023/03/18 07:09:23;;;;;;;27.43;15.23;;;10.70;99.90;;;;;;4998277;28;20180;-80
2023/03/18 07:11:49;;;;;;;13.73;9.63;;;10.70;99.90;;;;;;4979835;28;20645;-80
2023/03/18 07:14:15;;;;;;;14.27;10.10;;;10.70;99.90;;;;;;4997707;28;20263;-80
2023/03/18 07:16:41;;;;;;;12.83;8.50;;;10.80;99.90;;;;;;4997162;28;20223;-80
2023/03/18 07:19:06;;;;;;;10.73;6.70;;;10.80;99.90;;;;;;4998001;28;20180;-80
2023/03/18 07:21:34;;;;;;;9.77;7.50;;;10.80;99.90;;;;;;4997144;28;20641;-80
2023/03/18 07:24:00;;;;;;;11.67;7.27;;;10.80;99.90;;;;;;4979674;28;20251;-80
2023/03/18 07:26:26;;;;;;;11.27;6.80;;;10.80;99.90;;;;;;4996572;28;20176;-80
2023/03/18 07:28:52;;;;;;;7.37;6.63;;;10.90;99.90;;;;;;4997483;28;20264;-80
2023/03/18 07:31:18;;;;;;;9.00;6.60;;;10.90;99.90;;;;;;4979705;28;20212;-80
2023/03/18 07:33:43;;;;;;;8.23;6.77;;;11.00;99.90;;;;;;4980315;28;20215;-80
2023/03/18 07:36:09;;;;;;;9.63;6.67;;;11.00;99.90;;;;;;4979761;28;20184;-80
2023/03/18 07:38:35;;;;;;;11.17;7.83;;;11.10;99.90;;;;;;4980326;28;20318;-80
2023/03/18 07:41:01;;;;;;;8.80;7.43;;;11.10;99.90;;;;;;4979165;28;20196;-79
2023/03/18 07:43:27;;;;;;;8.17;6.43;;;11.20;99.90;;;;;;4979316;28;20637;-79
2023/03/18 07:45:52;;;;;;;8.60;6.93;;;11.20;99.90;;;;;;4979557;28;20188;-79
2023/03/18 07:48:19;;;;;;;9.07;7.30;;;11.30;99.90;;;;;;4996675;28;20200;-80
2023/03/18 07:50:44;;;;;;;12.30;7.10;;;11.30;99.90;;;;;;4998056;28;20183;-80
2023/03/18 07:53:11;;;;;;;11.83;7.20;;;11.40;99.90;;;;;;4985187;28;20180;-80
2023/03/18 07:55:37;;;;;;;8.70;7.17;;;11.50;99.90;;;;;;4999408;28;20178;-80
2023/03/18 07:58:03;;;;;;;9.87;6.77;;;11.50;99.90;;;;;;4996781;28;20200;-80
2023/03/18 08:00:30;;;;;;;9.10;6.63;;;11.50;99.90;;;;;;4996347;28;20173;-80
2023/03/18 08:02:56;;;;;;;9.63;6.75;;;11.70;99.90;;;;;;4979008;28;20223;-80
2023/03/18 08:05:21;;;;;;;7.88;6.10;;;11.70;99.90;;;;;;4981378;28;20177;-79
2023/03/18 08:07:47;;;;;;;8.93;6.15;;;11.70;99.90;;;;;;4996306;28;20192;-79
2023/03/18 08:10:14;;;;;;;8.93;6.22;;;11.70;99.90;;;;;;4995861;28;20207;-79
2023/03/18 08:12:41;;;;;;;10.70;6.25;;;11.80;99.90;;;;;;4995781;28;20172;-79
2023/03/18 08:15:08;;;;;;;8.63;5.63;;;11.70;99.90;;;;;;4995692;28;20177;-79
2023/03/18 08:17:34;;;;;;;7.68;5.68;;;11.80;99.90;;;;;;4978536;28;20267;-79
2023/03/18 08:19:59;;;;;;;8.40;6.00;;;11.80;99.90;;;;;;4995764;28;20168;-79
2023/03/18 08:22:25;;;;;;;7.28;6.00;;;11.80;99.90;;;;;;4996055;28;20176;-79
2023/03/18 08:24:51;;;;;;;9.55;6.00;;;11.90;99.90;;;;;;4978265;28;20208;-79
2023/03/18 08:27:17;;;;;;;8.10;6.85;;;11.90;99.90;;;;;;4978361;28;20204;-80
2023/03/18 08:29:44;;;;;;;7.88;6.05;;;11.90;99.90;;;;;;4978498;28;20176;-80
2023/03/18 08:32:10;;;;;;;9.18;5.97;;;11.90;99.90;;;;;;4978035;28;20188;-80
2023/03/18 08:34:36;;;;;;;8.30;6.40;;;11.90;99.90;;;;;;4996019;28;20204;-80
2023/03/18 08:37:02;;;;;;;7.85;5.55;;;11.90;99.90;;;;;;4978572;28;20208;-80
2023/03/18 08:39:28;;;;;;;8.52;6.70;;;12.00;99.90;;;;;;4979315;28;20172;-80
2023/03/18 08:41:54;;;;;;;8.20;6.38;;;12.10;99.90;;;;;;4980096;28;20695;-80
2023/03/18 08:44:19;;;;;;;6.30;5.68;;;12.10;99.90;;;;;;4996428;28;20196;-80
2023/03/18 08:46:45;;;;;;;8.13;5.70;;;12.20;99.90;;;;;;4978378;28;20283;-80
2023/03/18 08:49:12;;;;;;;7.60;6.30;;;12.30;99.90;;;;;;4997234;28;20175;-80
2023/03/18 08:51:38;;;;;;;9.18;6.10;;;12.30;99.90;;;;;;4998368;28;20169;-80
2023/03/18 08:54:04;;;;;;;9.95;6.10;;;12.40;99.90;;;;;;4997622;28;20180;-80
2023/03/18 08:56:30;;;;;;;11.00;6.03;;;12.40;99.90;;;;;;4979953;28;20223;-80
2023/03/18 08:58:56;;;;;;;7.03;6.20;;;12.50;99.90;;;;;;4997508;28;20665;-80
2023/03/18 09:01:22;;;;;;;6.70;5.40;;;12.60;99.90;;;;;;4979961;28;20219;-80
2023/03/18 09:03:49;;;;;;;7.18;6.07;;;12.60;99.90;;;;;;4998350;28;20203;-80
2023/03/18 09:06:15;;;;;;;7.00;6.30;;;12.70;99.90;;;;;;4981045;28;20205;-80
2023/03/18 09:08:41;;;;;;;7.57;6.78;;;12.70;99.90;;;;;;4981691;28;20646;-80
2023/03/18 09:11:08;;;;;;;8.25;6.57;;;12.70;99.90;;;;;;4999538;28;20204;-80
2023/03/18 09:13:34;;;;;;;8.63;5.85;;;12.70;99.90;;;;;;4998578;28;20176;-80
2023/03/18 09:16:00;;;;;;;10.90;6.43;;;12.80;99.90;;;;;;4999185;28;20180;-79
2023/03/18 09:18:27;;;;;;;9.93;6.57;;;12.90;99.90;;;;;;4980113;28;20212;-80
2023/03/18 09:20:52;;;;;;;6.70;5.95;;;13.00;99.90;;;;;;4980214;28;20736;-80
2023/03/18 09:23:18;;;;;;;9.90;6.68;;;13.00;99.90;;;;;;4996979;28;20233;-80
2023/03/18 09:25:49;;;;;;;9.00;6.95;;;13.00;99.90;;;;;;4979970;28;20185;-80
2023/03/18 09:28:15;;;;;;;9.80;6.90;;;13.00;99.90;;;;;;4996730;28;20193;-80
2023/03/18 09:30:41;;;;;;;8.50;6.68;;;13.00;99.90;;;;;;4996732;28;20203;-80
2023/03/18 09:33:09;;;;;;;8.77;6.20;;;13.10;99.90;;;;;;4979190;28;20188;-80
2023/03/18 09:35:36;;;;;;;7.30;6.60;;;13.30;99.90;;;;;;4979143;28;20188;-80
2023/03/18 09:38:03;;;;;;;11.38;7.28;;;13.30;99.90;;;;;;4997356;28;20204;-79
2023/03/18 09:40:32;;;;;;;8.60;6.15;;;13.30;99.90;;;;;;4980410;28;20550;-79
2023/03/18 09:43:31;;;;;;;12.00;7.57;;;13.50;99.90;;;;;;4982352;28;20243;-80
2023/03/18 09:46:05;;;;;;;7.85;7.05;;;13.60;99.90;;;;;;4999794;28;20604;-80
2023/03/18 09:48:59;;;;;;;13.45;7.10;;;13.70;99.90;;;;;;5002068;28;20561;-80
2023/03/18 09:51:44;;;;;;;7.18;6.47;;;13.60;99.90;;;;;;4983513;28;20198;-79
2023/03/18 09:54:19;;;;;;;8.00;6.68;;;13.50;99.90;;;;;;4984129;28;20212;-79
2023/03/18 09:56:46;;;;;;;9.20;7.90;;;13.40;99.90;;;;;;4983674;28;20583;-79
2023/03/18 09:59:42;;;;;;;10.65;7.22;;;13.30;99.90;;;;;;4983602;28;20176;-79
2023/03/18 10:02:33;;;;;;;7.95;6.80;;;13.30;99.90;;;;;;4999663;28;20199;-79
2023/03/18 10:05:06;;;;;;;9.85;6.93;;;13.60;99.90;;;;;;5002095;28;20215;-80
2023/03/18 10:07:36;;;;;;;6.88;6.18;;;13.60;99.90;;;;;;4983639;28;20200;-80
2023/03/18 10:10:15;;;;;;;7.63;5.90;;;13.70;99.90;;;;;;5002570;28;20161;-80
2023/03/18 10:12:47;;;;;;;7.10;5.82;;;13.90;99.90;;;;;;4983102;28;20176;-79
2023/03/18 10:15:31;;;;;;;10.25;6.03;;;14.00;99.90;;;;;;4983028;28;20200;-79
2023/03/18 10:18:35;;;;;;;7.03;5.90;;;14.20;99.90;;;;;;5000428;28;20204;-80
2023/03/18 10:21:33;;;;;;;6.25;5.20;;;14.30;99.90;;;;;;4981169;28;20709;-79
2023/03/18 10:24:35;;;;;;;8.05;6.38;;;14.30;99.90;;;;;;4998879;28;20184;-79
2023/03/18 10:27:12;;;;;;;6.55;5.53;;;14.30;99.90;;;;;;4980887;28;20203;-80
2023/03/18 10:30:16;;;;;;;7.45;5.50;;;14.50;99.90;;;;;;5000153;28;20199;-80
2023/03/18 10:32:57;;;;;;;5.50;4.80;;;14.50;99.90;;;;;;4983005;28;20199;-80
2023/03/18 10:35:37;;;;;;;8.43;5.40;;;14.60;99.90;;;;;;4982619;28;20180;-80
2023/03/18 10:38:22;;;;;;;6.60;5.32;;;14.70;99.90;;;;;;4981264;28;20204;-80
2023/03/18 10:40:48;;;;;;;8.45;5.10;;;14.60;99.90;;;;;;4981690;28;20203;-80
2023/03/18 10:43:20;;;;;;;7.75;5.65;;;14.70;99.90;;;;;;4998681;28;20279;-80
2023/03/18 10:45:51;;;;;;;6.82;4.80;;;14.80;99.90;;;;;;4980507;28;20173;-80
2023/03/18 10:48:28;;;;;;;4.55;4.10;;;14.90;99.90;;;;;;4997999;28;20203;-80
2023/03/18 10:51:30;;;;;;;13.73;9.13;;;15.00;99.90;;;;;;4980861;28;20176;-80
2023/03/18 10:54:19;;;;;;;5.68;4.13;;;15.10;99.90;;;;;;4965738;28;20187;-80
2023/03/18 10:56:45;;;;;;;4.28;3.70;;;15.10;99.90;;;;;;4981228;28;20209;-80
2023/03/18 10:59:15;;;;;;;5.32;3.85;;;15.10;99.90;;;;;;4998154;28;20538;-80
2023/03/18 11:01:46;;;;;;;4.82;3.70;;;15.20;99.90;;;;;;4998522;28;20168;-80
2023/03/18 11:04:16;;;;;;;4.13;3.60;;;15.40;99.90;;;;;;4997838;28;20152;-80
2023/03/18 11:06:59;;;;;;;4.78;4.25;;;15.40;99.90;;;;;;4980861;28;20295;-80
2023/03/18 11:09:35;;;;;;;4.03;3.70;;;15.40;99.90;;;;;;4981304;28;20176;-79
2023/03/18 11:12:18;;;;;;;4.00;3.33;;;15.70;99.90;;;;;;4981559;28;20180;-79
2023/03/18 11:14:48;;;;;;;3.70;2.83;;;15.70;99.90;;;;;;4997842;28;20677;-79
2023/03/18 11:17:32;;;;;;;4.80;3.00;;;15.70;99.90;;;;;;4998082;28;20211;-79
2023/03/18 11:20:15;;;;;;;3.40;3.10;;;15.60;99.90;;;;;;4999113;28;20168;-79
2023/03/18 11:22:46;;;;;;;3.42;3.05;;;15.60;99.90;;;;;;4980359;28;20204;-79
2023/03/18 11:25:25;;;;;;;3.90;2.90;;;15.60;99.90;;;;;;4983768;28;20172;-79
2023/03/18 11:28:37;;;;;;;6.00;3.10;;;15.80;99.90;;;;;;4983490;28;20668;-80
2023/03/18 11:31:05;;;;;;;5.90;3.15;;;16.20;99.90;;;;;;4978166;28;20211;-80
2023/03/18 11:33:36;;;;;;;4.70;2.90;;;16.40;99.90;;;;;;4998562;28;20178;-80
2023/03/18 11:36:07;;;;;;;3.15;2.63;;;16.50;99.90;;;;;;4981648;28;20630;-80
2023/03/18 11:38:36;;;;;;;4.70;2.78;;;16.70;99.90;;;;;;4981224;28;20295;-80
2023/03/18 11:41:07;;;;;;;2.92;2.72;;;16.70;99.90;;;;;;4980776;28;20183;-79
2023/03/18 11:43:35;;;;;;;2.80;2.60;;;16.70;99.90;;;;;;4999130;28;20642;-79
2023/03/18 11:46:10;;;;;;;2.85;2.65;;;16.60;99.90;;;;;;4981392;28;20543;-79
2023/03/18 11:48:43;;;;;;;3.60;2.88;;;16.80;99.90;;;;;;4981431;28;20191;-80
2023/03/18 11:51:43;;;;;;;3.70;2.47;;;17.10;99.90;;;;;;4998134;28;20711;-80
2023/03/18 11:54:30;;;;;;;4.68;2.47;;;17.00;99.90;;;;;;4998257;28;20180;-80
2023/03/18 11:57:07;;;;;;;4.25;2.47;;;17.00;99.90;;;;;;4998286;28;20200;-80
2023/03/18 11:59:41;;;;;;;2.20;2.10;;;17.30;99.90;;;;;;4982792;28;20207;-80
2023/03/18 12:02:16;;;;;;;3.28;2.53;;;17.40;99.90;;;;;;4980272;28;20176;-80
2023/03/18 12:04:48;;;;;;;2.88;2.50;;;17.50;99.90;;;;;;4980794;28;20251;-80
2023/03/18 12:07:20;;;;;;;2.85;2.30;;;17.20;99.90;;;;;;4997909;28;20251;-80
2023/03/18 12:10:03;;;;;;;3.42;2.38;;;17.00;99.90;;;;;;4979423;28;20195;-80
2023/03/18 12:12:58;;;;;;;3.45;2.60;;;16.70;99.90;;;;;;4980169;28;20200;-80
2023/03/18 12:15:39;;;;;;;2.55;2.35;;;16.80;99.90;;;;;;4997838;28;20180;-80
2023/03/18 12:18:14;;;;;;;2.65;2.40;;;17.40;99.90;;;;;;4997347;28;20204;-80
2023/03/18 12:20:51;;;;;;;2.85;2.40;;;17.70;99.90;;;;;;4998141;28;20617;-81
2023/03/18 12:23:34;;;;;;;3.72;2.25;;;18.00;99.90;;;;;;4998133;28;20188;-82
2023/03/18 12:26:29;;;;;;;2.88;2.20;;;18.20;99.90;;;;;;4997907;28;20157;-82
2023/03/18 12:29:01;;;;;;;2.85;2.42;;;18.00;99.90;;;;;;4981319;28;20287;-82
2023/03/18 12:31:38;;;;;;;3.85;2.30;;;18.40;99.90;;;;;;4980939;28;20214;-82
2023/03/18 12:34:21;;;;;;;4.18;2.60;;;18.80;99.90;;;;;;4982273;28;20175;-83
2023/03/18 12:37:09;;;;;;;4.28;2.53;;;19.20;99.90;;;;;;4985049;28;20207;-82
2023/03/18 12:39:57;;;;;;;2.63;2.42;;;19.30;99.90;;;;;;4984085;28;20188;-82
2023/03/18 12:42:35;;;;;;;3.83;2.63;;;19.10;99.90;;;;;;5001049;28;20176;-83
2023/03/18 12:45:19;;;;;;;2.40;2.22;;;18.70;99.90;;;;;;5000686;28;20652;-82
2023/03/18 12:47:48;;;;;;;4.15;2.30;;;18.40;99.90;;;;;;4982404;28;20665;-82
2023/03/18 12:50:18;;;;;;;3.65;2.50;;;18.20;99.90;;;;;;4983958;28;20181;-82
2023/03/18 12:53:01;;;;;;;2.55;2.20;;;18.20;99.90;;;;;;5000977;28;20168;-83
2023/03/18 12:55:40;;;;;;;3.03;2.72;;;17.90;99.90;;;;;;4982727;28;20235;-82
2023/03/18 12:58:21;;;;;;;3.00;2.35;;;17.90;99.90;;;;;;4982287;28;20262;-82